Time;durP1;ratioP1;P1;durP2;ratioP2;P2;SDS_P1;SDS_P2;PMS_P1;PMS_P2;Temp;Humidity;BMP_temperature;BMP_pressure;BME280_temperature;BME280_humidity;BME280_pressure;Samples;Min_cycle;Max_cycle;Signal;HPM_P1;HPM_P2
2023/09/16 00:03:28;;;;;;;2.55;1.25;;;19.60;99.90;;;;;;4131368;28;20198;-83
2023/09/16 00:05:29;;;;;;;4.53;1.20;;;19.50;99.90;;;;;;4163882;28;20558;-84
2023/09/16 00:07:31;;;;;;;2.83;1.55;;;19.60;99.90;;;;;;4147594;28;20239;-83
2023/09/16 00:09:33;;;;;;;4.65;1.20;;;19.60;99.90;;;;;;4164346;28;20519;-86
2023/09/16 00:11:34;;;;;;;1.63;0.93;;;19.40;99.90;;;;;;4147679;28;20181;-85
2023/09/16 00:13:35;;;;;;;2.75;1.02;;;19.30;99.90;;;;;;4163780;28;20709;-95
2023/09/16 00:15:36;;;;;;;2.13;1.10;;;19.20;99.90;;;;;;4147485;28;20177;-94
2023/09/16 00:17:37;;;;;;;2.42;1.17;;;19.10;99.90;;;;;;4164660;28;20187;-83
2023/09/16 00:19:38;;;;;;;3.15;1.50;;;19.10;99.90;;;;;;4167213;28;20172;-84
2023/09/16 00:21:41;;;;;;;2.65;1.17;;;19.10;99.90;;;;;;4150855;28;20231;-84
2023/09/16 00:23:42;;;;;;;1.63;1.08;;;19.00;99.90;;;;;;4167195;28;20195;-84
2023/09/16 00:25:43;;;;;;;1.75;1.10;;;19.00;99.90;;;;;;4150657;28;20189;-84
2023/09/16 00:27:43;;;;;;;2.85;0.98;;;19.10;99.90;;;;;;4166914;28;20187;-84
2023/09/16 00:29:44;;;;;;;2.60;1.02;;;19.30;99.90;;;;;;4166878;28;20632;-96
2023/09/16 00:31:45;;;;;;;2.75;1.15;;;19.50;99.90;;;;;;4166871;28;20172;-86
2023/09/16 00:33:49;;;;;;;2.25;1.13;;;19.50;99.90;;;;;;4150136;28;20233;-83
2023/09/16 00:35:50;;;;;;;2.88;1.38;;;20.00;99.90;;;;;;4168076;28;20271;-83
2023/09/16 00:37:50;;;;;;;7.45;1.80;;;20.40;99.90;;;;;;4150592;28;20181;-95
2023/09/16 00:39:51;;;;;;;2.83;1.63;;;20.50;99.90;;;;;;4150576;28;20653;-94
2023/09/16 00:41:52;;;;;;;2.22;1.40;;;20.50;99.90;;;;;;4166849;28;20216;-84
2023/09/16 00:43:53;;;;;;;4.95;1.10;;;20.40;99.90;;;;;;4166841;28;20291;-84
2023/09/16 00:45:54;;;;;;;3.13;1.08;;;20.40;99.90;;;;;;4166679;28;20192;-84
2023/09/16 00:47:55;;;;;;;2.92;1.40;;;20.20;99.90;;;;;;4166609;28;20272;-84
2023/09/16 00:49:57;;;;;;;2.85;1.30;;;20.20;99.90;;;;;;4166664;28;20180;-95
2023/09/16 00:51:58;;;;;;;4.28;1.17;;;20.10;99.90;;;;;;4150687;28;20185;-95
2023/09/16 00:53:59;;;;;;;5.20;1.33;;;20.20;99.90;;;;;;4150236;28;20232;-95
2023/09/16 00:56:00;;;;;;;2.35;1.20;;;20.20;99.90;;;;;;4150453;28;20626;-95
2023/09/16 00:58:02;;;;;;;4.85;1.55;;;20.00;99.90;;;;;;4166906;28;20184;-88
2023/09/16 01:00:07;;;;;;;2.13;1.15;;;19.90;99.90;;;;;;4166643;28;20214;-93
2023/09/16 01:02:09;;;;;;;4.15;1.13;;;19.60;99.90;;;;;;4166613;28;20291;-91
2023/09/16 01:04:11;;;;;;;1.42;0.80;;;19.30;99.90;;;;;;4167123;28;20354;-95
2023/09/16 01:06:16;;;;;;;1.83;1.25;;;19.40;99.90;;;;;;4166486;28;20263;-87
2023/09/16 01:08:18;;;;;;;2.55;1.50;;;19.40;99.90;;;;;;4150626;28;20181;-95
2023/09/16 01:10:22;;;;;;;2.05;1.10;;;19.60;99.90;;;;;;4166599;28;20177;-95
2023/09/16 01:12:23;;;;;;;2.63;1.40;;;19.80;99.90;;;;;;4166251;28;20692;-84
2023/09/16 01:14:24;;;;;;;2.22;1.45;;;19.90;99.90;;;;;;4166174;28;20200;-96
2023/09/16 01:16:51;;;;;;;3.28;1.48;;;19.80;99.90;;;;;;4166291;28;20184;-94
2023/09/16 01:19:03;;;;;;;1.85;1.17;;;19.90;99.90;;;;;;4149757;28;20184;-83
2023/09/16 01:21:05;;;;;;;2.42;1.60;;;19.90;99.90;;;;;;4166061;28;20279;-84
2023/09/16 01:23:07;;;;;;;4.07;2.00;;;19.90;99.90;;;;;;4149926;28;20788;-83
2023/09/16 01:25:08;;;;;;;4.47;1.48;;;19.90;99.90;;;;;;4149847;28;20208;-83
2023/09/16 01:27:09;;;;;;;2.33;1.60;;;19.90;99.90;;;;;;4166299;28;20605;-95
2023/09/16 01:29:10;;;;;;;4.18;1.40;;;19.90;99.90;;;;;;4149316;28;20180;-83
2023/09/16 01:31:12;;;;;;;3.55;1.83;;;19.90;99.90;;;;;;4166171;28;20188;-92
2023/09/16 01:33:19;;;;;;;3.25;1.50;;;19.90;99.90;;;;;;4167246;28;20215;-96
2023/09/16 01:35:21;;;;;;;2.20;1.42;;;19.90;99.90;;;;;;4149932;28;20542;-93
2023/09/16 01:37:24;;;;;;;4.35;1.48;;;19.90;99.90;;;;;;4149806;28;20181;-83
2023/09/16 01:39:29;;;;;;;2.85;1.60;;;19.80;99.90;;;;;;4165923;28;20283;-83
2023/09/16 01:41:34;;;;;;;3.60;1.23;;;19.70;99.90;;;;;;4149714;28;20216;-83
2023/09/16 01:43:37;;;;;;;2.15;1.10;;;19.60;99.90;;;;;;4166007;28;20196;-84
2023/09/16 01:45:43;;;;;;;2.80;1.48;;;19.60;99.90;;;;;;4165791;28;20176;-83
2023/09/16 01:47:45;;;;;;;3.33;1.25;;;19.60;99.90;;;;;;4165819;28;20190;-83
2023/09/16 01:49:46;;;;;;;1.73;1.00;;;19.40;99.90;;;;;;4149306;28;20667;-91
2023/09/16 01:51:46;;;;;;;1.90;0.95;;;19.00;99.90;;;;;;4167067;28;20179;-84
2023/09/16 01:53:48;;;;;;;1.10;0.75;;;18.80;99.90;;;;;;4165691;28;20246;-84
2023/09/16 01:55:49;;;;;;;2.60;1.10;;;19.00;99.90;;;;;;4165665;28;20184;-96
2023/09/16 01:57:49;;;;;;;2.58;1.15;;;19.20;99.90;;;;;;4165487;28;20561;-84
2023/09/16 01:59:50;;;;;;;1.15;1.00;;;19.10;99.90;;;;;;4149234;28;20189;-94
2023/09/16 02:01:51;;;;;;;3.67;1.40;;;19.10;99.90;;;;;;4149231;28;20212;-84
2023/09/16 02:03:52;;;;;;;2.85;0.85;;;19.30;99.90;;;;;;4149009;28;20208;-84
2023/09/16 02:05:53;;;;;;;2.47;1.33;;;19.30;99.90;;;;;;4148971;28;20177;-84
2023/09/16 02:07:54;;;;;;;1.80;1.10;;;19.30;99.90;;;;;;4165192;28;20605;-84
2023/09/16 02:09:54;;;;;;;2.38;1.42;;;19.20;99.90;;;;;;4165454;28;20523;-84
2023/09/16 02:11:55;;;;;;;1.88;1.10;;;19.10;99.90;;;;;;4165377;28;20176;-83
2023/09/16 02:13:56;;;;;;;3.63;1.35;;;18.80;99.90;;;;;;4165221;28;20241;-84
2023/09/16 02:15:58;;;;;;;3.53;1.20;;;18.90;99.90;;;;;;4165295;28;20199;-84
2023/09/16 02:17:59;;;;;;;2.88;1.20;;;19.10;99.90;;;;;;4165231;28;20264;-84
2023/09/16 02:20:00;;;;;;;2.42;1.30;;;19.30;99.90;;;;;;4148881;28;20181;-84
2023/09/16 02:22:01;;;;;;;3.30;1.52;;;19.20;99.90;;;;;;4165795;28;20212;-84
2023/09/16 02:24:01;;;;;;;1.75;1.10;;;19.10;99.90;;;;;;4148680;28;20777;-95
2023/09/16 02:26:03;;;;;;;3.28;1.55;;;18.80;99.90;;;;;;4165384;28;20176;-85
2023/09/16 02:28:04;;;;;;;3.08;1.50;;;18.70;99.90;;;;;;4148756;28;20189;-93
2023/09/16 02:30:05;;;;;;;3.63;1.10;;;18.60;99.90;;;;;;4165221;28;20246;-93
2023/09/16 02:32:06;;;;;;;2.28;1.00;;;18.60;99.90;;;;;;4165229;28;20207;-89
2023/09/16 02:34:07;;;;;;;2.15;1.10;;;18.70;99.90;;;;;;4148632;28;20204;-84
2023/09/16 02:36:08;;;;;;;2.42;1.20;;;18.70;99.90;;;;;;4165349;28;20189;-94
2023/09/16 02:38:09;;;;;;;2.75;1.20;;;18.90;99.90;;;;;;4165019;28;20203;-85
2023/09/16 02:40:11;;;;;;;1.92;1.10;;;18.90;99.90;;;;;;4164085;28;20290;-84
2023/09/16 02:42:11;;;;;;;6.72;1.40;;;18.80;99.90;;;;;;4164930;28;20267;-94
2023/09/16 02:44:12;;;;;;;2.03;1.17;;;18.60;99.90;;;;;;4148172;28;20690;-94
2023/09/16 02:46:13;;;;;;;3.05;1.40;;;18.50;99.90;;;;;;4165902;28;20195;-95
2023/09/16 02:48:18;;;;;;;3.65;1.35;;;18.40;99.90;;;;;;4148550;28;20227;-94
2023/09/16 02:50:18;;;;;;;1.45;1.08;;;18.60;99.90;;;;;;4164561;28;20169;-95
2023/09/16 02:52:20;;;;;;;2.85;1.30;;;18.60;99.90;;;;;;4148361;28;20243;-88
2023/09/16 02:54:21;;;;;;;3.58;1.33;;;18.50;99.90;;;;;;4148453;28;20601;-94
2023/09/16 02:56:23;;;;;;;1.63;0.98;;;18.30;99.90;;;;;;4164823;28;20649;-94
2023/09/16 02:58:24;;;;;;;2.25;1.05;;;18.20;99.90;;;;;;4164661;28;20179;-84
2023/09/16 03:00:25;;;;;;;3.47;1.40;;;18.20;99.90;;;;;;4148202;28;20281;-83
2023/09/16 03:02:26;;;;;;;1.92;1.10;;;18.30;99.90;;;;;;4164750;28;20216;-84
2023/09/16 03:04:27;;;;;;;3.28;1.00;;;18.50;99.90;;;;;;4164553;28;20600;-84
2023/09/16 03:06:28;;;;;;;3.20;1.50;;;18.70;99.90;;;;;;4164479;28;20281;-84
2023/09/16 03:08:29;;;;;;;1.92;1.20;;;18.90;99.90;;;;;;4164485;28;20187;-83
2023/09/16 03:10:33;;;;;;;3.83;1.88;;;19.20;99.90;;;;;;4148043;28;20259;-94
2023/09/16 03:12:34;;;;;;;4.45;1.90;;;19.40;99.90;;;;;;4148208;28;20741;-83
2023/09/16 03:14:35;;;;;;;5.28;1.63;;;19.30;99.90;;;;;;4164220;28;20265;-84
2023/09/16 03:16:36;;;;;;;3.63;1.70;;;19.20;99.90;;;;;;4164467;28;20282;-84
2023/09/16 03:18:37;;;;;;;6.38;1.80;;;19.10;99.90;;;;;;4148130;28;20181;-84
2023/09/16 03:20:38;;;;;;;4.05;1.88;;;19.00;99.90;;;;;;4165492;28;20682;-84
2023/09/16 03:22:38;;;;;;;2.53;1.35;;;18.90;99.90;;;;;;4147995;28;20191;-83
2023/09/16 03:24:42;;;;;;;3.53;1.75;;;18.80;99.90;;;;;;4147951;28;20180;-83
2023/09/16 03:26:42;;;;;;;3.00;1.30;;;18.90;99.90;;;;;;4164175;28;20184;-84
2023/09/16 03:28:46;;;;;;;8.07;1.52;;;18.80;99.90;;;;;;4164303;28;20192;-83
2023/09/16 03:30:47;;;;;;;4.63;1.80;;;18.60;99.90;;;;;;4164355;28;20230;-83
2023/09/16 03:32:49;;;;;;;3.30;1.52;;;18.20;99.90;;;;;;4147980;28;20216;-84
2023/09/16 03:34:50;;;;;;;2.55;1.60;;;18.10;99.90;;;;;;4147963;28;20211;-84
2023/09/16 03:36:51;;;;;;;3.42;1.45;;;18.00;99.90;;;;;;4164146;28;20187;-84
2023/09/16 03:38:52;;;;;;;7.85;1.52;;;17.90;99.90;;;;;;4147835;28;20597;-85
2023/09/16 03:40:53;;;;;;;2.60;1.52;;;17.80;99.90;;;;;;4147766;28;20209;-84
2023/09/16 03:42:55;;;;;;;4.57;1.10;;;17.70;99.90;;;;;;4164028;28;20235;-85
2023/09/16 03:44:56;;;;;;;7.00;1.20;;;17.70;99.90;;;;;;4164500;28;20211;-85
2023/09/16 03:46:58;;;;;;;1.98;0.95;;;17.70;99.90;;;;;;4164316;28;20191;-94
2023/09/16 03:48:59;;;;;;;1.75;0.90;;;17.70;99.90;;;;;;4164189;28;20542;-87
2023/09/16 03:50:59;;;;;;;3.45;1.30;;;17.80;99.90;;;;;;4165040;28;20227;-85
2023/09/16 03:53:00;;;;;;;2.63;1.33;;;17.90;99.90;;;;;;4164763;28;20715;-84
2023/09/16 03:55:02;;;;;;;1.98;1.30;;;18.40;99.90;;;;;;4147513;28;20192;-83
2023/09/16 03:57:03;;;;;;;2.33;1.60;;;18.80;99.90;;;;;;4147739;28;20539;-83
2023/09/16 03:59:05;;;;;;;4.05;1.55;;;19.20;99.90;;;;;;4163901;28;20184;-91
2023/09/16 04:01:06;;;;;;;2.20;1.20;;;19.40;99.90;;;;;;4147541;28;20227;-83
2023/09/16 04:03:06;;;;;;;2.70;1.20;;;19.60;99.90;;;;;;4163651;28;20215;-83
2023/09/16 04:05:07;;;;;;;6.82;1.55;;;19.60;99.90;;;;;;4163769;28;20274;-83
2023/09/16 04:07:08;;;;;;;3.92;2.03;;;19.40;99.90;;;;;;4147366;28;20211;-84
2023/09/16 04:09:09;;;;;;;3.70;1.77;;;19.30;99.90;;;;;;4147372;28;20188;-85
2023/09/16 04:11:09;;;;;;;2.90;1.38;;;19.20;99.90;;;;;;4163754;28;20263;-94
2023/09/16 04:13:13;;;;;;;6.93;2.28;;;19.10;99.90;;;;;;4147475;28;20227;-84
2023/09/16 04:15:15;;;;;;;5.15;2.45;;;18.90;99.90;;;;;;4163896;28;20180;-93
2023/09/16 04:17:17;;;;;;;3.92;1.90;;;18.70;99.90;;;;;;4163917;28;20176;-94
2023/09/16 04:19:18;;;;;;;2.80;1.60;;;18.80;99.90;;;;;;4163888;28;20179;-94
2023/09/16 04:21:19;;;;;;;3.63;1.85;;;18.70;99.90;;;;;;4163827;28;20224;-84
2023/09/16 04:23:22;;;;;;;2.75;1.67;;;18.70;99.90;;;;;;4147654;28;20271;-84
2023/09/16 04:25:24;;;;;;;3.67;1.52;;;18.30;99.90;;;;;;4147467;28;20189;-85
2023/09/16 04:27:26;;;;;;;3.67;1.73;;;17.80;99.90;;;;;;4163727;28;20195;-84
2023/09/16 04:29:27;;;;;;;5.57;1.58;;;17.50;99.90;;;;;;4147507;28;20188;-84
2023/09/16 04:31:30;;;;;;;2.08;1.35;;;17.20;99.90;;;;;;4165140;28;20222;-84
2023/09/16 04:33:31;;;;;;;2.72;1.38;;;17.00;99.90;;;;;;4163669;28;20204;-84
2023/09/16 04:35:31;;;;;;;3.03;1.55;;;17.20;99.90;;;;;;4163893;28;20668;-84
2023/09/16 04:37:32;;;;;;;2.33;1.23;;;17.30;99.90;;;;;;4163860;28;20192;-96
2023/09/16 04:39:34;;;;;;;1.65;1.35;;;17.50;99.90;;;;;;4147507;28;20177;-95
2023/09/16 04:41:35;;;;;;;2.30;1.30;;;17.80;99.90;;;;;;4163744;28;20281;-94
2023/09/16 04:43:38;;;;;;;3.50;1.58;;;17.80;99.90;;;;;;4163453;28;20196;-95
2023/09/16 04:45:44;;;;;;;2.95;1.35;;;17.80;99.90;;;;;;4163599;28;20181;-95
2023/09/16 04:47:45;;;;;;;2.33;1.13;;;17.90;99.90;;;;;;4147501;28;20172;-94
2023/09/16 04:49:46;;;;;;;2.95;1.27;;;18.10;99.90;;;;;;4163696;28;20271;-95
2023/09/16 04:51:47;;;;;;;3.15;1.13;;;18.40;99.90;;;;;;4147261;28;20177;-94
2023/09/16 04:53:50;;;;;;;1.60;1.00;;;18.40;99.90;;;;;;4163423;28;20215;-91
2023/09/16 04:56:00;;;;;;;3.03;1.30;;;18.50;99.90;;;;;;4163494;28;20717;-93
2023/09/16 04:58:01;;;;;;;2.08;1.40;;;18.40;99.90;;;;;;4147372;28;20730;-83
2023/09/16 05:00:05;;;;;;;2.97;1.02;;;18.10;99.90;;;;;;4163575;28;20177;-84
2023/09/16 05:02:06;;;;;;;2.33;1.38;;;18.20;99.90;;;;;;4163559;28;20216;-83
2023/09/16 05:04:07;;;;;;;3.00;1.67;;;18.60;99.90;;;;;;4148590;28;20233;-92
2023/09/16 05:06:08;;;;;;;4.57;1.48;;;18.80;99.90;;;;;;4150073;28;20651;-92
2023/09/16 05:08:09;;;;;;;2.50;1.38;;;18.80;99.90;;;;;;4166331;28;20620;-96
2023/09/16 05:10:10;;;;;;;4.30;1.90;;;18.70;99.90;;;;;;4166455;28;20609;-93
2023/09/16 05:12:11;;;;;;;2.88;1.77;;;18.70;99.90;;;;;;4149993;28;20246;-93
2023/09/16 05:14:12;;;;;;;2.65;1.75;;;18.60;99.90;;;;;;4149821;28;20193;-84
2023/09/16 05:16:13;;;;;;;2.75;1.60;;;18.50;99.90;;;;;;4166325;28;20194;-84
2023/09/16 05:18:14;;;;;;;2.63;1.75;;;18.50;99.90;;;;;;4149844;28;20180;-83
2023/09/16 05:20:15;;;;;;;2.85;1.85;;;18.30;99.90;;;;;;4149990;28;20230;-83
2023/09/16 05:22:16;;;;;;;3.47;1.70;;;18.30;99.90;;;;;;4149974;28;20769;-83
2023/09/16 05:24:17;;;;;;;4.82;1.73;;;18.30;99.90;;;;;;4150073;28;20193;-83
2023/09/16 05:26:18;;;;;;;4.90;2.17;;;18.10;99.90;;;;;;4150099;28;20235;-88
2023/09/16 05:28:20;;;;;;;3.17;1.77;;;17.50;99.90;;;;;;4150169;28;20586;-85
2023/09/16 05:30:21;;;;;;;2.97;1.67;;;17.20;99.90;;;;;;4150091;28;20798;-84
2023/09/16 05:32:22;;;;;;;2.75;1.40;;;17.30;99.90;;;;;;4167075;28;20188;-87
2023/09/16 05:34:23;;;;;;;2.78;1.40;;;17.20;99.90;;;;;;4150250;28;20205;-84
2023/09/16 05:36:24;;;;;;;3.83;1.88;;;17.10;99.90;;;;;;4166511;28;20255;-92
2023/09/16 05:38:25;;;;;;;2.45;1.20;;;17.40;99.90;;;;;;4167168;28;20253;-95
2023/09/16 05:40:26;;;;;;;5.07;2.30;;;17.70;99.90;;;;;;4150375;28;20180;-94
2023/09/16 05:42:27;;;;;;;2.90;1.42;;;17.90;99.90;;;;;;4166194;28;20223;-95
2023/09/16 05:44:28;;;;;;;3.60;1.73;;;18.10;99.90;;;;;;4165858;28;20215;-84
2023/09/16 05:46:31;;;;;;;3.38;1.90;;;18.30;99.90;;;;;;4165879;28;20275;-83
2023/09/16 05:48:31;;;;;;;3.78;1.85;;;18.50;99.90;;;;;;4166365;28;20649;-83
2023/09/16 05:50:32;;;;;;;3.53;1.73;;;18.60;99.90;;;;;;4149543;28;20192;-83
2023/09/16 05:52:33;;;;;;;4.25;1.77;;;18.40;99.90;;;;;;4166452;28;20621;-84
2023/09/16 05:54:34;;;;;;;3.58;1.70;;;18.30;99.90;;;;;;4150254;28;20181;-84
2023/09/16 05:56:38;;;;;;;1.98;1.42;;;18.00;99.90;;;;;;4166258;28;20181;-84
2023/09/16 05:58:39;;;;;;;2.97;1.58;;;18.00;99.90;;;;;;4149478;28;20177;-83
2023/09/16 06:00:40;;;;;;;3.85;1.63;;;18.10;99.90;;;;;;4165403;28;20180;-89
2023/09/16 06:02:41;;;;;;;5.10;1.70;;;18.40;99.90;;;;;;4165588;28;20218;-84
2023/09/16 06:04:42;;;;;;;5.82;1.80;;;18.60;99.90;;;;;;4149840;28;20177;-83
2023/09/16 06:06:43;;;;;;;2.50;1.55;;;18.60;99.90;;;;;;4182455;28;20648;-83
2023/09/16 06:08:44;;;;;;;3.25;1.98;;;18.50;99.90;;;;;;4149753;28;20212;-84
2023/09/16 06:10:45;;;;;;;4.03;1.63;;;18.50;99.90;;;;;;4150057;28;20196;-95
2023/09/16 06:12:46;;;;;;;4.03;1.60;;;18.60;99.90;;;;;;4149387;28;20183;-84
2023/09/16 06:14:47;;;;;;;3.63;1.90;;;18.70;99.90;;;;;;4165557;28;20611;-84
2023/09/16 06:16:48;;;;;;;6.78;1.80;;;18.90;99.90;;;;;;4165603;28;20172;-85
2023/09/16 06:18:49;;;;;;;2.80;1.65;;;19.00;99.90;;;;;;4165396;28;20184;-84
2023/09/16 06:20:49;;;;;;;3.25;1.67;;;19.10;99.90;;;;;;4165131;28;20183;-84
2023/09/16 06:22:51;;;;;;;4.00;1.88;;;19.20;99.90;;;;;;4165179;28;20208;-84
2023/09/16 06:24:52;;;;;;;4.38;1.80;;;19.20;99.90;;;;;;4165282;28;20184;-84
2023/09/16 06:26:56;;;;;;;5.57;1.92;;;19.20;99.90;;;;;;4149237;28;20665;-93
2023/09/16 06:28:57;;;;;;;6.03;1.75;;;18.90;99.90;;;;;;4148914;28;20307;-94
2023/09/16 06:30:58;;;;;;;4.10;1.95;;;18.70;99.90;;;;;;4165056;28;20581;-94
2023/09/16 06:32:59;;;;;;;4.90;2.22;;;19.00;99.90;;;;;;4148551;28;20197;-83
2023/09/16 06:35:00;;;;;;;3.08;2.03;;;19.10;99.90;;;;;;4148688;28;20624;-96
2023/09/16 06:37:02;;;;;;;3.17;1.83;;;19.20;99.90;;;;;;4148920;28;20219;-89
2023/09/16 06:39:05;;;;;;;5.03;1.80;;;19.20;99.90;;;;;;4149043;28;20239;-84
2023/09/16 06:41:05;;;;;;;3.10;1.88;;;19.20;99.90;;;;;;4148509;28;20209;-84
2023/09/16 06:43:06;;;;;;;4.15;1.48;;;19.10;99.90;;;;;;4165339;28;20258;-96
2023/09/16 06:45:12;;;;;;;5.60;1.83;;;19.00;99.90;;;;;;4149276;28;20672;-86
2023/09/16 06:47:13;;;;;;;3.10;1.83;;;19.00;99.90;;;;;;4165117;28;20176;-86
2023/09/16 06:49:15;;;;;;;4.88;2.10;;;19.10;99.90;;;;;;4165106;28;20179;-84
2023/09/16 06:51:15;;;;;;;3.17;2.00;;;19.20;99.90;;;;;;4164904;28;20258;-93
2023/09/16 06:53:16;;;;;;;3.97;2.08;;;19.50;99.90;;;;;;4164953;28;20282;-93
2023/09/16 06:55:17;;;;;;;3.83;1.83;;;19.80;99.90;;;;;;4148347;28;20177;-91
2023/09/16 06:57:17;;;;;;;8.40;2.55;;;20.10;99.90;;;;;;4148627;28;20243;-94
2023/09/16 06:59:18;;;;;;;2.83;1.70;;;20.40;99.90;;;;;;4164789;28;20275;-94
2023/09/16 07:01:19;;;;;;;5.40;2.08;;;20.60;99.90;;;;;;4148295;28;20204;-84
2023/09/16 07:03:21;;;;;;;4.22;2.10;;;20.70;99.90;;;;;;4164245;28;20208;-83
2023/09/16 07:05:21;;;;;;;5.25;2.33;;;20.60;99.90;;;;;;4164407;28;20188;-84
2023/09/16 07:07:23;;;;;;;4.70;2.17;;;20.60;99.90;;;;;;4164355;28;20732;-83
2023/09/16 07:09:24;;;;;;;5.05;2.20;;;20.70;99.90;;;;;;4147924;28;20547;-84
2023/09/16 07:11:25;;;;;;;3.00;1.95;;;21.20;99.90;;;;;;4165927;28;20172;-83
2023/09/16 07:13:25;;;;;;;3.72;2.15;;;21.80;99.90;;;;;;4166140;28;20207;-94
2023/09/16 07:15:26;;;;;;;5.53;1.88;;;22.40;99.90;;;;;;4148704;28;20185;-84
2023/09/16 07:17:27;;;;;;;3.78;1.92;;;22.90;99.90;;;;;;4164495;28;20282;-84
2023/09/16 07:19:28;;;;;;;4.03;1.60;;;23.20;99.90;;;;;;4152730;28;20321;-84
2023/09/16 07:21:28;;;;;;;4.63;1.92;;;23.20;99.90;;;;;;4150520;28;20204;-84
2023/09/16 07:23:29;;;;;;;4.80;2.22;;;23.20;99.90;;;;;;4167764;28;20214;-91
2023/09/16 07:25:30;;;;;;;3.47;2.15;;;23.20;99.90;;;;;;4150949;28;20180;-95
2023/09/16 07:27:31;;;;;;;2.50;1.52;;;23.50;99.90;;;;;;4169553;28;20271;-96
2023/09/16 07:29:31;;;;;;;4.30;1.98;;;24.10;99.90;;;;;;4154420;28;20187;-96
2023/09/16 07:31:32;;;;;;;3.63;1.70;;;24.40;99.90;;;;;;4150416;28;20672;-84
2023/09/16 07:33:33;;;;;;;4.85;2.40;;;25.20;99.90;;;;;;4149724;28;20197;-84
2023/09/16 07:35:34;;;;;;;4.28;1.85;;;25.90;99.90;;;;;;4166072;28;20653;-85
2023/09/16 07:37:34;;;;;;;7.82;2.30;;;26.00;99.90;;;;;;4152652;28;20534;-84
2023/09/16 07:39:35;;;;;;;3.72;1.95;;;25.90;99.90;;;;;;4169661;28;20188;-84
2023/09/16 07:41:36;;;;;;;3.05;1.60;;;25.50;99.90;;;;;;4168226;28;20215;-84
2023/09/16 07:43:36;;;;;;;3.88;1.50;;;25.30;99.90;;;;;;4152703;28;20197;-84
2023/09/16 07:45:38;;;;;;;10.07;1.67;;;25.00;99.90;;;;;;4149595;28;20184;-85
2023/09/16 07:47:39;;;;;;;5.97;2.25;;;25.90;99.90;;;;;;4150604;28;20185;-85
2023/09/16 07:49:39;;;;;;;2.58;1.70;;;26.30;99.90;;;;;;4166713;28;20654;-96
2023/09/16 07:51:41;;;;;;;3.20;1.80;;;26.50;99.90;;;;;;4166623;28;20176;-96
2023/09/16 07:53:41;;;;;;;4.25;2.30;;;27.60;99.90;;;;;;4149117;28;20200;-85
2023/09/16 07:55:42;;;;;;;6.53;2.08;;;27.50;99.90;;;;;;4150032;28;20227;-87
2023/09/16 07:57:43;;;;;;;3.45;1.65;;;27.40;99.90;;;;;;4167307;28;20180;-85
2023/09/16 07:59:43;;;;;;;3.10;1.73;;;27.70;99.90;;;;;;4167498;28;20226;-84
2023/09/16 08:01:44;;;;;;;3.22;2.00;;;27.80;99.90;;;;;;4169948;28;20577;-96
2023/09/16 08:03:45;;;;;;;3.58;2.17;;;27.50;99.90;;;;;;4169001;28;20208;-92
2023/09/16 08:05:46;;;;;;;3.03;2.00;;;27.80;99.90;;;;;;4166760;28;20589;-85
2023/09/16 08:07:46;;;;;;;1.92;1.42;;;27.50;99.90;;;;;;4164665;28;20207;-94
2023/09/16 08:09:48;;;;;;;3.13;1.92;;;27.90;99.90;;;;;;4168944;28;20203;-95
2023/09/16 08:11:49;;;;;;;3.50;1.75;;;27.60;99.90;;;;;;4175427;28;20171;-85
2023/09/16 08:13:51;;;;;;;2.67;1.90;;;27.50;99.90;;;;;;4177077;28;20184;-85
2023/09/16 08:15:55;;;;;;;3.13;1.67;;;28.40;99.90;;;;;;4176160;28;20180;-96
2023/09/16 08:17:56;;;;;;;4.40;1.90;;;27.90;99.90;;;;;;4177129;28;20527;-87
2023/09/16 08:19:57;;;;;;;3.42;1.90;;;28.00;99.90;;;;;;4178938;28;20180;-85
2023/09/16 08:21:57;;;;;;;2.65;1.58;;;27.80;99.90;;;;;;4177962;28;20212;-85
2023/09/16 08:23:58;;;;;;;3.78;1.73;;;27.20;99.90;;;;;;4223801;22;20374;-90
2023/09/16 08:25:59;;;;;;;3.60;1.90;;;27.00;99.90;;;;;;4164283;28;20192;-90
2023/09/16 08:27:59;;;;;;;3.08;1.73;;;27.80;99.90;;;;;;4164586;28;20172;-90
2023/09/16 08:30:00;;;;;;;2.75;1.95;;;28.00;99.90;;;;;;4164579;28;20184;-90
2023/09/16 08:32:01;;;;;;;2.45;1.80;;;27.80;99.90;;;;;;4176649;28;20229;-94
2023/09/16 08:34:02;;;;;;;6.85;2.13;;;27.70;99.90;;;;;;4170164;28;20743;-95
2023/09/16 08:36:03;;;;;;;2.72;1.73;;;28.10;99.90;;;;;;4164701;28;20574;-92
2023/09/16 08:38:04;;;;;;;7.03;2.67;;;28.50;99.90;;;;;;4148354;28;20191;-92
2023/09/16 08:40:05;;;;;;;3.33;2.00;;;29.00;99.90;;;;;;4151039;28;20189;-90
2023/09/16 08:42:16;;;;;;;4.00;1.88;;;28.20;99.90;;;;;;4154088;28;20359;-89
2023/09/16 08:44:21;;;;;;;3.70;2.15;;;27.70;99.90;;;;;;4169424;28;20196;-89
2023/09/16 08:46:23;;;;;;;4.15;2.10;;;27.60;99.90;;;;;;4169623;28;20206;-88
2023/09/16 08:48:26;;;;;;;2.97;1.90;;;27.60;99.90;;;;;;4169480;28;20735;-89
2023/09/16 08:50:27;;;;;;;3.17;2.17;;;26.80;99.90;;;;;;4170866;28;20184;-88
2023/09/16 08:52:44;;;;;;;3.05;1.77;;;26.30;99.90;;;;;;4153033;28;20619;-90
2023/09/16 08:54:47;;;;;;;4.10;2.80;;;26.20;99.90;;;;;;4168443;28;20196;-88
2023/09/16 08:56:49;;;;;;;5.47;2.10;;;26.60;99.90;;;;;;4169091;28;20188;-88
2023/09/16 08:58:50;;;;;;;3.92;2.08;;;27.10;99.90;;;;;;4151932;28;20179;-88
2023/09/16 09:00:50;;;;;;;3.70;2.20;;;27.10;99.90;;;;;;4151363;28;20184;-89
2023/09/16 09:02:52;;;;;;;5.68;2.63;;;27.80;99.90;;;;;;4151160;28;20608;-88
2023/09/16 09:04:53;;;;;;;4.82;2.40;;;28.90;99.90;;;;;;4168151;28;20582;-91
2023/09/16 09:06:56;;;;;;;3.20;2.08;;;28.60;99.90;;;;;;4167878;28;20208;-90
2023/09/16 09:08:57;;;;;;;3.67;2.08;;;28.00;99.90;;;;;;4168670;28;20630;-88
2023/09/16 09:10:58;;;;;;;2.72;1.42;;;27.70;99.90;;;;;;4152529;28;20238;-88
2023/09/16 09:13:00;;;;;;;2.75;1.95;;;27.70;99.90;;;;;;4151651;28;20196;-88
2023/09/16 09:15:04;;;;;;;5.00;2.00;;;27.60;99.90;;;;;;4151869;28;20231;-96
2023/09/16 09:17:08;;;;;;;3.65;2.20;;;27.60;99.90;;;;;;4168398;28;20242;-88
2023/09/16 09:19:10;;;;;;;3.45;1.73;;;27.70;99.90;;;;;;4168878;28;20198;-88
2023/09/16 09:21:11;;;;;;;4.03;1.83;;;26.70;99.90;;;;;;4151143;28;20204;-88
2023/09/16 09:23:12;;;;;;;3.83;1.80;;;26.80;99.90;;;;;;4167708;28;20238;-88
2023/09/16 09:25:13;;;;;;;2.42;1.60;;;27.10;99.90;;;;;;4151459;28;20200;-88
2023/09/16 09:27:14;;;;;;;2.80;1.65;;;28.20;99.90;;;;;;4152275;28;20228;-88
2023/09/16 09:29:15;;;;;;;2.28;1.77;;;28.40;99.90;;;;;;4169021;28;20188;-88
2023/09/16 09:31:16;;;;;;;3.97;1.70;;;28.50;99.90;;;;;;4169674;28;20187;-88
2023/09/16 09:33:20;;;;;;;2.90;1.60;;;27.90;99.90;;;;;;4170034;28;20290;-89
2023/09/16 09:35:26;;;;;;;2.90;1.67;;;28.10;99.90;;;;;;4135609;28;20178;-93
2023/09/16 09:37:26;;;;;;;2.33;1.50;;;28.70;99.90;;;;;;4152098;28;20189;-88
2023/09/16 09:39:27;;;;;;;4.18;1.65;;;29.00;99.90;;;;;;4151751;28;20685;-88
2023/09/16 09:41:51;;;;;;;3.00;1.50;;;28.70;99.90;;;;;;4151757;28;20279;-88
2023/09/16 09:43:53;;;;;;;2.47;1.55;;;28.20;99.90;;;;;;4167029;28;20266;-91
2023/09/16 09:45:53;;;;;;;3.03;1.65;;;27.80;99.90;;;;;;4153921;28;20184;-89
2023/09/16 09:47:55;;;;;;;3.45;1.73;;;27.50;99.90;;;;;;4154162;28;20183;-94
2023/09/16 09:49:56;;;;;;;5.38;1.70;;;27.30;99.90;;;;;;4168675;28;20234;-88
2023/09/16 09:51:57;;;;;;;2.92;1.70;;;27.70;99.90;;;;;;4151846;28;20177;-88
2023/09/16 09:53:58;;;;;;;2.85;1.73;;;27.60;99.90;;;;;;4150860;28;20240;-88
2023/09/16 09:55:59;;;;;;;4.30;1.55;;;27.60;99.90;;;;;;4151782;28;20247;-87
2023/09/16 09:58:01;;;;;;;2.20;1.25;;;27.50;99.90;;;;;;4166563;28;20242;-87
2023/09/16 10:00:04;;;;;;;2.80;1.60;;;27.60;99.90;;;;;;4167071;28;20277;-88
2023/09/16 10:02:12;;;;;;;3.42;2.00;;;27.50;99.90;;;;;;4172269;28;20235;-88
2023/09/16 10:04:13;;;;;;;2.25;1.55;;;26.70;99.90;;;;;;4166237;28;20203;-88
2023/09/16 10:06:16;;;;;;;10.90;2.38;;;26.50;99.90;;;;;;4186041;28;20175;-94
2023/09/16 10:08:17;;;;;;;3.53;1.70;;;26.20;99.90;;;;;;4185871;28;20198;-87
2023/09/16 10:10:20;;;;;;;5.55;1.60;;;25.90;99.90;;;;;;4184309;28;20180;-88
2023/09/16 10:12:21;;;;;;;3.92;1.75;;;26.20;99.90;;;;;;4166943;28;20706;-88
2023/09/16 10:14:22;;;;;;;2.28;1.58;;;26.40;99.90;;;;;;4183460;28;20211;-87
2023/09/16 10:16:23;;;;;;;2.42;1.63;;;26.30;99.90;;;;;;4167571;28;20182;-87
2023/09/16 10:18:24;;;;;;;1.80;1.02;;;26.20;99.90;;;;;;4166913;28;20192;-88
2023/09/16 10:20:30;;;;;;;2.40;1.48;;;26.00;99.90;;;;;;4182618;28;20276;-87
2023/09/16 10:22:31;;;;;;;2.22;1.30;;;26.10;99.90;;;;;;4182794;28;20215;-88
2023/09/16 10:24:32;;;;;;;3.05;1.75;;;26.00;99.90;;;;;;4182717;28;20191;-88
2023/09/16 10:26:33;;;;;;;6.30;2.08;;;26.00;99.90;;;;;;4167098;28;20617;-87
2023/09/16 10:28:42;;;;;;;2.35;1.35;;;25.70;99.90;;;;;;4182590;28;20175;-88
2023/09/16 10:30:43;;;;;;;2.67;1.75;;;25.70;99.90;;;;;;4182591;28;20182;-88
2023/09/16 10:32:44;;;;;;;1.48;1.08;;;25.60;99.90;;;;;;4166170;28;20183;-95
2023/09/16 10:34:47;;;;;;;2.40;1.45;;;25.60;99.90;;;;;;4168190;28;20207;-88
2023/09/16 10:36:48;;;;;;;1.75;1.00;;;25.50;99.90;;;;;;4166032;28;20218;-89